createdAt,value
2024-02-15T00:01:06.528Z,21.20
2024-02-15T00:03:33.816Z,55.30
2024-02-15T00:06:01.262Z,25.23
2024-02-15T00:08:30.770Z,16.23
2024-02-15T00:10:57.564Z,14.13
2024-02-15T00:13:24.282Z,23.77
2024-02-15T00:15:51.467Z,21.03
2024-02-15T00:18:18.549Z,31.93
2024-02-15T00:20:49.860Z,56.30
2024-02-15T00:23:17.935Z,43.97
2024-02-15T00:25:46.232Z,48.40
2024-02-15T00:31:07.041Z,28.30
2024-02-15T00:33:34.042Z,22.27
2024-02-15T00:38:53.770Z,15.30
2024-02-15T00:41:21.283Z,18.30
2024-02-15T00:43:50.703Z,17.57
2024-02-15T00:46:30.245Z,10.50
2024-02-15T00:48:57.346Z,23.60
2024-02-15T00:51:24.151Z,35.03
2024-02-15T00:53:50.914Z,25.80
2024-02-15T00:56:18.733Z,43.27
2024-02-15T00:58:51.680Z,16.35
2024-02-15T01:01:18.432Z,16.63
2024-02-15T01:03:45.152Z,11.70
2024-02-15T01:06:11.921Z,8.73
2024-02-15T01:08:38.690Z,8.20
2024-02-15T01:11:05.569Z,6.07
2024-02-15T01:13:32.323Z,7.10
2024-02-15T01:15:59.077Z,19.77
2024-02-15T01:18:28.262Z,17.83
2024-02-15T01:20:55.772Z,17.87
2024-02-15T01:23:23.722Z,19.30
2024-02-15T01:25:50.612Z,22.37
2024-02-15T01:28:17.254Z,16.87
2024-02-15T01:30:44.943Z,16.40
2024-02-15T01:33:13.132Z,19.77
2024-02-15T01:35:40.109Z,18.30
2024-02-15T01:38:07.930Z,19.83
2024-02-15T01:40:34.637Z,17.23
2024-02-15T01:43:01.831Z,14.73
2024-02-15T01:45:29.384Z,16.50
2024-02-15T01:47:57.690Z,15.13
2024-02-15T01:50:26.876Z,16.57
2024-02-15T01:52:56.479Z,17.60
2024-02-15T01:55:23.219Z,15.77
2024-02-15T01:57:50.995Z,13.87
2024-02-15T02:00:19.475Z,21.20
2024-02-15T02:02:48.019Z,16.23
2024-02-15T02:05:14.812Z,17.77
2024-02-15T02:07:42.697Z,13.20
2024-02-15T02:10:13.497Z,11.73
2024-02-15T02:12:42.177Z,12.93
2024-02-15T02:15:12.419Z,12.90
2024-02-15T02:17:41.233Z,13.57
2024-02-15T02:20:12.409Z,9.17
2024-02-15T02:22:42.092Z,9.33
2024-02-15T02:25:09.930Z,21.67
2024-02-15T02:27:37.434Z,20.20
2024-02-15T02:30:07.933Z,12.70
2024-02-15T02:32:38.010Z,16.07
2024-02-15T02:35:07.093Z,11.03
2024-02-15T02:37:37.938Z,16.10
2024-02-15T02:40:09.855Z,16.60
2024-02-15T02:42:57.328Z,13.73
2024-02-15T02:45:24.575Z,15.10
2024-02-15T02:47:54.185Z,9.50
2024-02-15T02:50:26.419Z,8.30
2024-02-15T02:52:55.935Z,7.60
2024-02-15T02:55:23.696Z,16.80
2024-02-15T02:57:50.627Z,12.03
2024-02-15T03:00:18.249Z,13.50
2024-02-15T03:02:46.699Z,13.77
2024-02-15T03:05:14.669Z,15.00
2024-02-15T03:07:41.972Z,17.50
2024-02-15T03:10:12.213Z,13.60
2024-02-15T03:12:40.123Z,16.10
2024-02-15T03:15:13.970Z,15.67
2024-02-15T03:17:45.124Z,19.17
2024-02-15T03:20:18.924Z,24.07
2024-02-15T03:22:45.597Z,19.07
2024-02-15T03:25:13.449Z,17.53
2024-02-15T03:28:00.546Z,16.07
2024-02-15T03:30:28.322Z,15.97
2024-02-15T03:32:57.722Z,15.07
2024-02-15T03:35:29.963Z,19.13
2024-02-15T03:37:57.689Z,16.70
2024-02-15T03:40:28.329Z,13.23
2024-02-15T03:42:55.342Z,15.00
2024-02-15T03:45:26.167Z,12.73
2024-02-15T03:47:54.331Z,29.80
2024-02-15T03:50:23.282Z,26.87
2024-02-15T03:52:51.433Z,35.70
2024-02-15T03:55:18.983Z,41.67
2024-02-15T03:57:47.079Z,36.43
2024-02-15T04:00:22.753Z,38.60
2024-02-15T04:02:51.511Z,29.47
2024-02-15T04:05:20.113Z,27.03
2024-02-15T04:07:47.139Z,35.90
2024-02-15T04:10:13.986Z,35.17
2024-02-15T04:12:43.742Z,37.17
2024-02-15T04:15:15.243Z,34.57
2024-02-15T04:17:43.920Z,35.93
2024-02-15T04:20:13.504Z,38.17
2024-02-15T04:22:43.949Z,38.43
2024-02-15T04:25:12.075Z,26.63
2024-02-15T04:27:39.906Z,34.00
2024-02-15T04:30:09.199Z,41.37
2024-02-15T04:32:38.367Z,39.53
2024-02-15T04:35:08.996Z,46.40
2024-02-15T04:37:38.563Z,49.80
2024-02-15T04:40:11.993Z,49.00
2024-02-15T04:42:42.599Z,47.70
2024-02-15T04:45:11.504Z,35.30
2024-02-15T04:47:41.765Z,31.63
2024-02-15T04:50:08.989Z,38.43
2024-02-15T04:52:36.095Z,42.93
2024-02-15T04:55:06.126Z,41.87
2024-02-15T04:57:38.556Z,40.87
2024-02-15T05:00:12.977Z,37.63
2024-02-15T05:02:42.730Z,41.78
2024-02-15T05:05:14.731Z,50.40
2024-02-15T05:07:44.366Z,57.80
2024-02-15T05:10:11.371Z,54.93
2024-02-15T05:12:41.837Z,38.70
2024-02-15T05:15:12.806Z,52.30
2024-02-15T05:17:42.522Z,46.87
2024-02-15T05:20:13.067Z,50.43
2024-02-15T05:22:43.260Z,65.60
2024-02-15T05:25:10.774Z,49.60
2024-02-15T05:27:37.427Z,102.93
2024-02-15T05:30:08.466Z,64.33
2024-02-15T05:32:42.971Z,74.43
2024-02-15T05:35:12.327Z,76.75
2024-02-15T05:37:39.886Z,94.97
2024-02-15T05:40:08.441Z,95.27
2024-02-15T05:42:36.081Z,99.33
2024-02-15T05:45:28.051Z,92.30
2024-02-15T05:47:56.339Z,80.67
2024-02-15T05:50:25.171Z,83.73
2024-02-15T05:52:56.249Z,79.37
2024-02-15T05:55:23.652Z,75.63
2024-02-15T05:57:50.442Z,83.93
2024-02-15T06:00:22.328Z,113.87
2024-02-15T06:02:51.729Z,121.30
2024-02-15T06:05:19.230Z,96.07
2024-02-15T06:07:47.853Z,85.37
2024-02-15T06:10:15.844Z,76.37
2024-02-15T06:12:43.526Z,75.10
2024-02-15T06:15:16.750Z,72.57
2024-02-15T06:17:45.531Z,92.15
2024-02-15T06:20:15.207Z,85.90
2024-02-15T06:22:42.622Z,94.03
2024-02-15T06:25:09.768Z,71.17
2024-02-15T06:27:42.439Z,61.93
2024-02-15T06:30:29.411Z,65.37
2024-02-15T06:33:22.713Z,75.87
2024-02-15T06:36:07.832Z,74.33
2024-02-15T06:38:52.894Z,72.75
2024-02-15T06:41:21.520Z,46.88
2024-02-15T06:43:49.406Z,39.87
2024-02-15T06:46:16.091Z,43.83
2024-02-15T06:48:46.264Z,39.63
2024-02-15T06:51:15.679Z,11.52
2024-02-15T06:53:43.055Z,16.50
2024-02-15T06:56:10.655Z,18.80
2024-02-15T06:58:37.809Z,28.30
2024-02-15T07:01:04.704Z,23.42
2024-02-15T07:03:33.545Z,21.90
2024-02-15T07:06:00.412Z,29.80
2024-02-15T07:08:27.137Z,34.15
2024-02-15T07:10:53.825Z,38.83
2024-02-15T07:13:20.578Z,31.67
2024-02-15T07:15:47.694Z,20.42
2024-02-15T07:18:18.298Z,20.13
2024-02-15T07:20:47.141Z,15.27
2024-02-15T07:23:13.804Z,12.13
2024-02-15T07:25:40.614Z,20.13
2024-02-15T07:28:09.298Z,19.38
2024-02-15T07:30:36.037Z,12.75
2024-02-15T07:33:03.660Z,17.73
2024-02-15T07:35:31.721Z,20.95
2024-02-15T07:38:02.825Z,20.13
2024-02-15T07:40:29.757Z,13.38
2024-02-15T07:42:59.319Z,10.27
2024-02-15T07:45:26.284Z,10.30
2024-02-15T07:47:53.142Z,5.97
2024-02-15T07:50:24.238Z,5.13
2024-02-15T07:52:52.400Z,4.88
2024-02-15T07:55:19.185Z,4.35
2024-02-15T07:57:47.607Z,5.75
2024-02-15T08:00:17.601Z,4.18
2024-02-15T08:02:44.889Z,5.60
2024-02-15T08:05:13.444Z,4.95
2024-02-15T08:07:48.790Z,6.38
2024-02-15T08:10:15.758Z,5.15
2024-02-15T08:12:46.982Z,5.47
2024-02-15T08:15:14.097Z,4.97
2024-02-15T08:17:42.657Z,5.97
2024-02-15T08:20:12.016Z,3.97
2024-02-15T08:22:42.433Z,4.03
2024-02-15T08:25:14.459Z,7.00
2024-02-15T08:27:44.234Z,7.10
2024-02-15T08:30:12.816Z,4.38
2024-02-15T08:32:44.208Z,4.82
2024-02-15T08:35:12.501Z,3.95
2024-02-15T08:37:44.674Z,6.65
2024-02-15T08:40:12.859Z,5.20
2024-02-15T08:42:43.805Z,3.53
2024-02-15T08:45:13.220Z,4.97
2024-02-15T08:47:41.747Z,6.07
2024-02-15T08:50:12.909Z,3.35
2024-02-15T08:52:40.886Z,3.83
2024-02-15T08:55:11.622Z,4.90
2024-02-15T08:57:43.252Z,4.53
2024-02-15T09:00:15.106Z,6.07
2024-02-15T09:02:42.571Z,5.03
2024-02-15T09:05:09.758Z,4.57
2024-02-15T09:07:41.016Z,4.07
2024-02-15T09:10:08.914Z,3.55
2024-02-15T09:12:35.871Z,5.03
2024-02-15T09:15:02.763Z,5.63
2024-02-15T09:17:32.462Z,4.78
2024-02-15T09:19:59.996Z,3.35
2024-02-15T09:22:28.489Z,5.18
2024-02-15T09:24:55.211Z,5.10
2024-02-15T09:27:22.468Z,4.68
2024-02-15T09:29:49.180Z,4.38
2024-02-15T09:32:15.953Z,6.13
2024-02-15T09:34:43.246Z,3.33
2024-02-15T09:37:10.233Z,7.32
2024-02-15T09:39:39.186Z,7.63
2024-02-15T09:42:06.100Z,6.38
2024-02-15T09:44:32.875Z,3.45
2024-02-15T09:47:07.230Z,5.57
2024-02-15T09:49:41.806Z,4.13
2024-02-15T09:52:12.905Z,3.22
2024-02-15T09:54:44.636Z,4.32
2024-02-15T09:57:13.063Z,3.70
2024-02-15T09:59:41.300Z,5.32
2024-02-15T10:02:12.201Z,4.60
2024-02-15T10:04:41.281Z,5.28
2024-02-15T10:07:10.407Z,5.03
2024-02-15T10:09:44.115Z,5.15
2024-02-15T10:12:11.080Z,6.53
2024-02-15T10:14:39.382Z,4.75
2024-02-15T10:17:13.215Z,4.63
2024-02-15T10:19:40.546Z,4.05
2024-02-15T10:22:09.543Z,4.70
2024-02-15T10:24:36.741Z,5.60
2024-02-15T10:27:07.722Z,5.90
2024-02-15T10:29:35.423Z,6.07
2024-02-15T10:32:03.434Z,3.92
2024-02-15T10:34:32.037Z,3.25
2024-02-15T10:37:18.071Z,2.67
2024-02-15T10:39:45.024Z,6.07
2024-02-15T10:42:12.681Z,3.47
2024-02-15T10:44:42.319Z,4.20
2024-02-15T10:47:10.307Z,4.03
2024-02-15T10:49:37.688Z,4.22
2024-02-15T10:52:05.743Z,4.55
2024-02-15T10:54:38.417Z,5.90
2024-02-15T10:57:06.818Z,4.68
2024-02-15T10:59:39.375Z,4.32
2024-02-15T11:02:33.099Z,2.45
2024-02-15T11:05:04.814Z,3.22
2024-02-15T11:07:33.327Z,4.72
2024-02-15T11:10:01.040Z,3.05
2024-02-15T11:12:28.803Z,2.85
2024-02-15T11:14:55.659Z,3.28
2024-02-15T11:17:50.486Z,4.32
2024-02-15T11:20:35.774Z,3.60
2024-02-15T11:25:42.951Z,3.90
2024-02-15T11:28:22.168Z,5.53
2024-02-15T11:30:52.547Z,4.47
2024-02-15T11:33:29.219Z,3.97
2024-02-15T11:36:11.760Z,5.57
2024-02-15T11:38:44.967Z,3.90
2024-02-15T11:41:12.523Z,4.18
2024-02-15T11:43:53.420Z,3.10
2024-02-15T11:46:21.137Z,3.22
2024-02-15T11:48:49.344Z,4.72
2024-02-15T11:51:44.474Z,5.85
2024-02-15T11:54:13.196Z,5.40
2024-02-15T11:56:50.506Z,6.35
2024-02-15T11:59:30.358Z,3.78
2024-02-15T12:02:16.254Z,3.90
2024-02-15T12:05:02.502Z,4.47
2024-02-15T12:07:48.570Z,3.40
2024-02-15T12:10:38.758Z,6.50
2024-02-15T12:13:24.353Z,5.65
2024-02-15T12:16:35.616Z,4.78
2024-02-15T12:19:05.033Z,4.68
2024-02-15T12:21:32.597Z,5.22
2024-02-15T12:23:59.462Z,9.40
2024-02-15T12:26:26.855Z,8.63
2024-02-15T12:28:57.519Z,5.10
2024-02-15T12:31:28.008Z,4.97
2024-02-15T12:34:08.571Z,4.85
2024-02-15T12:36:38.891Z,6.88
2024-02-15T12:39:18.261Z,9.23
2024-02-15T12:41:52.568Z,5.68
2024-02-15T12:44:23.745Z,5.57
2024-02-15T12:46:57.597Z,5.57
2024-02-15T12:49:25.351Z,8.82
2024-02-15T12:51:54.945Z,6.30
2024-02-15T12:54:22.680Z,10.32
2024-02-15T12:56:52.963Z,7.10
2024-02-15T12:59:24.978Z,6.07
2024-02-15T13:01:51.735Z,9.45
2024-02-15T13:04:26.538Z,10.70
2024-02-15T13:06:53.524Z,7.20
2024-02-15T13:09:20.432Z,7.25
2024-02-15T13:11:48.392Z,7.03
2024-02-15T13:14:18.230Z,5.43
2024-02-15T13:16:46.036Z,9.15
2024-02-15T13:19:12.852Z,9.00
2024-02-15T13:21:41.100Z,8.25
2024-02-15T13:24:07.887Z,6.53
2024-02-15T13:26:35.489Z,8.05
2024-02-15T13:29:02.195Z,8.55
2024-02-15T13:31:32.329Z,8.52
2024-02-15T13:33:59.153Z,5.13
2024-02-15T13:36:26.739Z,30.48
2024-02-15T13:38:53.500Z,15.82
2024-02-15T13:41:21.213Z,12.18
2024-02-15T13:43:47.876Z,13.65
2024-02-15T13:46:14.933Z,10.93
2024-02-15T13:48:41.921Z,9.65
2024-02-15T13:51:10.907Z,9.00
2024-02-15T13:53:38.406Z,9.45
2024-02-15T13:56:06.582Z,7.78
2024-02-15T13:58:34.184Z,12.00
2024-02-15T14:01:04.451Z,12.00
2024-02-15T14:03:34.087Z,12.65
2024-02-15T14:06:01.619Z,7.82
2024-02-15T14:08:28.350Z,10.23
2024-02-15T14:10:55.137Z,9.35
2024-02-15T14:13:24.012Z,10.30
2024-02-15T14:15:52.389Z,12.63
2024-02-15T14:18:20.853Z,13.73
2024-02-15T14:20:49.167Z,10.15
2024-02-15T14:23:16.466Z,6.20
2024-02-15T14:25:45.878Z,8.40
2024-02-15T14:28:13.521Z,5.85
2024-02-15T14:30:59.589Z,8.82
2024-02-15T14:33:33.335Z,10.68
2024-02-15T14:36:02.170Z,17.98
2024-02-15T14:38:30.346Z,16.42
2024-02-15T14:40:59.541Z,20.80
2024-02-15T14:43:28.552Z,20.92
2024-02-15T14:45:58.048Z,15.07
2024-02-15T14:48:26.100Z,10.82
2024-02-15T14:50:54.334Z,12.98
2024-02-15T14:53:23.876Z,11.65
2024-02-15T14:55:51.604Z,13.43
2024-02-15T14:58:19.421Z,13.65
2024-02-15T15:00:47.916Z,8.90
2024-02-15T15:03:16.037Z,12.77
2024-02-15T15:06:02.000Z,13.15
2024-02-15T15:08:47.959Z,16.10
2024-02-15T15:11:33.652Z,15.88
2024-02-15T15:14:00.478Z,16.08
2024-02-15T15:16:29.478Z,19.08
2024-02-15T15:18:57.576Z,16.52
2024-02-15T15:21:27.254Z,17.75
2024-02-15T15:23:54.323Z,19.45
2024-02-15T15:26:22.303Z,22.25
2024-02-15T15:28:49.776Z,25.50
2024-02-15T15:31:17.225Z,22.15
2024-02-15T15:33:45.836Z,27.10
2024-02-15T15:36:18.402Z,30.55
2024-02-15T15:38:45.269Z,19.45
2024-02-15T15:41:13.346Z,19.15
2024-02-15T15:43:40.371Z,18.88
2024-02-15T15:46:07.116Z,24.95
2024-02-15T15:48:34.789Z,26.33
2024-02-15T15:51:06.497Z,16.70
2024-02-15T15:53:35.449Z,17.73
2024-02-15T15:56:03.819Z,17.58
2024-02-15T15:58:31.209Z,20.35
2024-02-15T16:01:00.078Z,17.60
2024-02-15T16:03:28.084Z,22.55
2024-02-15T16:05:55.509Z,28.95
2024-02-15T16:08:22.910Z,24.27
2024-02-15T16:10:49.678Z,13.68
2024-02-15T16:13:16.937Z,15.23
2024-02-15T16:15:47.511Z,14.40
2024-02-15T16:18:15.586Z,9.70
2024-02-15T16:20:43.828Z,17.67
2024-02-15T16:23:10.733Z,14.73
2024-02-15T16:25:37.446Z,17.60
2024-02-15T16:28:07.544Z,18.55
2024-02-15T16:30:35.456Z,18.08
2024-02-15T16:33:05.564Z,19.73
2024-02-15T16:35:32.443Z,29.20
2024-02-15T16:37:59.254Z,19.70
2024-02-15T16:40:29.106Z,28.25
2024-02-15T16:42:59.017Z,77.85
2024-02-15T16:45:26.205Z,35.35
2024-02-15T16:48:01.610Z,32.17
2024-02-15T16:50:30.693Z,25.42
2024-02-15T16:52:57.935Z,58.40
2024-02-15T16:55:30.329Z,63.75
2024-02-15T16:58:09.742Z,64.20
2024-02-15T17:00:40.236Z,59.75
2024-02-15T17:03:07.480Z,57.97
2024-02-15T17:05:36.780Z,73.97
2024-02-15T17:08:08.856Z,52.72
2024-02-15T17:10:40.693Z,61.30
2024-02-15T17:13:11.326Z,116.25
2024-02-15T17:15:38.204Z,76.70
2024-02-15T17:18:05.433Z,52.35
2024-02-15T17:20:32.550Z,121.60
2024-02-15T17:22:59.262Z,56.30
2024-02-15T17:25:27.204Z,54.08
2024-02-15T17:28:00.155Z,85.47
2024-02-15T17:30:27.903Z,58.33
2024-02-15T17:32:56.497Z,62.38
2024-02-15T17:35:24.545Z,52.95
2024-02-15T17:37:51.352Z,59.42
2024-02-15T17:40:19.404Z,57.40
2024-02-15T17:42:46.511Z,57.92
2024-02-15T17:45:15.699Z,82.53
2024-02-15T17:47:46.095Z,92.10
2024-02-15T17:50:18.511Z,67.38
2024-02-15T17:52:48.895Z,51.22
2024-02-15T17:55:17.274Z,52.42
2024-02-15T17:57:49.073Z,56.15
2024-02-15T18:00:23.205Z,67.22
2024-02-15T18:02:52.718Z,90.88
2024-02-15T18:05:21.440Z,99.90
2024-02-15T18:07:49.405Z,80.20
2024-02-15T18:10:23.407Z,55.70
2024-02-15T18:12:50.145Z,45.83
2024-02-15T18:15:25.777Z,76.78
2024-02-15T18:17:57.751Z,42.95
2024-02-15T18:20:25.404Z,42.58
2024-02-15T18:22:53.435Z,49.70
2024-02-15T18:25:20.367Z,65.78
2024-02-15T18:27:48.149Z,62.13
2024-02-15T18:30:19.876Z,64.90
2024-02-15T18:32:47.859Z,62.85
2024-02-15T18:35:17.263Z,65.25
2024-02-15T18:37:44.814Z,60.10
2024-02-15T18:40:22.806Z,54.85
2024-02-15T18:42:52.781Z,54.33
2024-02-15T18:45:20.373Z,59.80
2024-02-15T18:47:47.467Z,82.63
2024-02-15T18:50:17.040Z,76.30
2024-02-15T18:52:44.663Z,71.90
2024-02-15T18:55:13.483Z,88.22
2024-02-15T18:57:40.492Z,96.83
2024-02-15T19:00:16.312Z,92.60
2024-02-15T19:02:53.356Z,81.03
2024-02-15T19:05:26.483Z,77.20
2024-02-15T19:07:53.398Z,69.70
2024-02-15T19:10:22.166Z,74.03
2024-02-15T19:12:54.901Z,58.37
2024-02-15T19:15:24.946Z,71.45
2024-02-15T19:17:57.485Z,65.05
2024-02-15T19:20:24.217Z,72.22
2024-02-15T19:22:50.921Z,85.00
2024-02-15T19:25:20.060Z,89.57
2024-02-15T19:27:48.104Z,73.45
2024-02-15T19:30:15.183Z,75.10
2024-02-15T19:32:42.631Z,96.83
2024-02-15T19:35:12.438Z,78.90
2024-02-15T19:37:39.296Z,67.53
2024-02-15T19:40:12.618Z,81.67
2024-02-15T19:42:41.310Z,94.55
2024-02-15T19:45:08.617Z,83.87
2024-02-15T19:47:36.941Z,82.57
2024-02-15T19:50:05.234Z,92.23
2024-02-15T19:52:34.039Z,87.63
2024-02-15T19:55:00.873Z,78.13
2024-02-15T19:57:27.727Z,82.93
2024-02-15T19:59:55.403Z,61.77
2024-02-15T20:02:22.868Z,61.30
2024-02-15T20:04:50.600Z,43.53
2024-02-15T20:07:20.069Z,48.13
2024-02-15T20:09:50.981Z,45.67
2024-02-15T20:12:18.183Z,48.70
2024-02-15T20:14:45.057Z,39.87
2024-02-15T20:17:14.739Z,45.38
2024-02-15T20:19:41.785Z,47.93
2024-02-15T20:22:09.752Z,43.63
2024-02-15T20:24:39.616Z,49.73
2024-02-15T20:27:07.491Z,62.10
2024-02-15T20:29:36.591Z,68.93
2024-02-15T20:32:04.686Z,73.30
2024-02-15T20:34:34.725Z,51.83
2024-02-15T20:37:02.653Z,61.47
2024-02-15T20:39:32.629Z,58.27
2024-02-15T20:42:01.458Z,58.63
2024-02-15T20:44:28.235Z,48.70
2024-02-15T20:46:56.941Z,45.27
2024-02-15T20:49:25.432Z,47.33
2024-02-15T20:51:53.756Z,24.60
2024-02-15T20:54:22.357Z,25.90
2024-02-15T20:56:50.792Z,31.07
2024-02-15T20:59:18.812Z,37.07
2024-02-15T21:01:45.651Z,34.00
2024-02-15T21:04:12.714Z,39.73
2024-02-15T21:06:40.816Z,41.50
2024-02-15T21:09:15.355Z,43.60
2024-02-15T21:11:44.649Z,47.97
2024-02-15T21:14:15.555Z,30.80
2024-02-15T21:16:43.281Z,38.53
2024-02-15T21:19:11.042Z,32.47
2024-02-15T21:21:38.557Z,28.00
2024-02-15T21:24:06.948Z,24.63
2024-02-15T21:26:34.642Z,23.20
2024-02-15T21:29:06.006Z,24.67
2024-02-15T21:31:32.909Z,28.07
2024-02-15T21:34:01.284Z,30.87
2024-02-15T21:36:28.232Z,35.30
2024-02-15T21:38:54.992Z,34.57
2024-02-15T21:41:22.529Z,32.20
2024-02-15T21:43:49.382Z,28.97
2024-02-15T21:46:16.541Z,45.77
2024-02-15T21:48:44.382Z,40.73
2024-02-15T21:51:11.244Z,33.93
2024-02-15T21:53:39.628Z,29.87
2024-02-15T21:56:06.553Z,33.20
2024-02-15T21:58:33.839Z,41.60
2024-02-15T22:01:01.536Z,47.10
2024-02-15T22:03:28.482Z,47.53
2024-02-15T22:05:55.385Z,45.17
2024-02-15T22:08:23.593Z,42.77
2024-02-15T22:10:54.082Z,42.77
2024-02-15T22:13:22.454Z,39.00
2024-02-15T22:15:49.145Z,45.93
2024-02-15T22:18:16.119Z,43.60
2024-02-15T22:20:42.941Z,42.57
2024-02-15T22:23:10.529Z,60.53
2024-02-15T22:25:38.644Z,47.97
2024-02-15T22:28:06.244Z,47.27
2024-02-15T22:30:33.700Z,42.97
2024-02-15T22:33:00.878Z,49.30
2024-02-15T22:35:27.697Z,48.70
2024-02-15T22:37:55.624Z,44.70
2024-02-15T22:40:22.508Z,35.00
2024-02-15T22:42:49.293Z,48.07
2024-02-15T22:45:16.152Z,52.07
2024-02-15T22:47:44.267Z,77.10
2024-02-15T22:50:11.566Z,51.67
2024-02-15T22:52:39.498Z,56.60
2024-02-15T22:55:07.171Z,52.43
2024-02-15T22:57:34.050Z,52.67
2024-02-15T23:00:01.327Z,52.93
2024-02-15T23:02:36.519Z,51.97
2024-02-15T23:05:05.449Z,54.37
2024-02-15T23:07:32.725Z,59.17
2024-02-15T23:10:01.553Z,35.40
2024-02-15T23:12:28.362Z,33.13
2024-02-15T23:14:56.440Z,43.13
2024-02-15T23:17:26.328Z,33.90
2024-02-15T23:19:54.228Z,35.27
2024-02-15T23:22:20.945Z,47.20
2024-02-15T23:24:52.164Z,23.50
2024-02-15T23:27:18.988Z,25.40
2024-02-15T23:29:45.721Z,20.90
2024-02-15T23:32:12.541Z,23.70
2024-02-15T23:34:39.981Z,17.87
2024-02-15T23:37:25.201Z,16.50
2024-02-15T23:42:38.187Z,13.97
2024-02-15T23:45:05.462Z,15.07
2024-02-15T23:47:32.267Z,19.93
2024-02-15T23:49:59.062Z,16.40
2024-02-15T23:52:26.247Z,16.00
2024-02-15T23:54:52.915Z,17.47
2024-02-15T23:57:21.885Z,15.17
2024-02-15T23:59:48.895Z,10.50
